createdAt,value
2019-03-15T00:01:26.025Z,63.94
2019-03-15T00:03:53.040Z,64.32
2019-03-15T00:06:20.104Z,64.71
2019-03-15T00:08:48.485Z,64.23
2019-03-15T00:11:15.543Z,63.96
2019-03-15T00:13:45.400Z,64.25
2019-03-15T00:16:12.527Z,64.34
2019-03-15T00:18:39.677Z,64.12
2019-03-15T00:21:12.412Z,63.90
2019-03-15T00:23:39.464Z,63.83
2019-03-15T00:26:06.483Z,64.13
2019-03-15T00:28:33.516Z,64.58
2019-03-15T00:31:00.563Z,64.90
2019-03-15T00:33:27.872Z,65.79
2019-03-15T00:35:55.269Z,66.25
2019-03-15T00:38:24.002Z,66.73
2019-03-15T00:40:51.199Z,67.02
2019-03-15T00:43:18.256Z,67.29
2019-03-15T00:45:45.293Z,67.47
2019-03-15T00:48:12.651Z,67.80
2019-03-15T00:50:39.703Z,67.55
2019-03-15T00:53:07.038Z,67.35
2019-03-15T00:55:34.465Z,67.56
2019-03-15T00:58:01.747Z,67.55
2019-03-15T01:00:28.777Z,67.73
2019-03-15T01:02:56.143Z,67.75
2019-03-15T01:05:23.357Z,67.90
2019-03-15T01:07:50.374Z,67.64
2019-03-15T01:10:17.409Z,67.66
2019-03-15T01:12:44.449Z,67.47
2019-03-15T01:15:12.073Z,67.25
2019-03-15T01:17:39.510Z,66.86
2019-03-15T01:20:06.628Z,66.31
2019-03-15T01:22:33.794Z,66.00
2019-03-15T01:25:01.435Z,65.87
2019-03-15T01:27:28.575Z,65.22
2019-03-15T01:29:55.620Z,65.12
2019-03-15T01:32:22.983Z,65.32
2019-03-15T01:34:50.079Z,64.90
2019-03-15T01:37:17.140Z,64.79
2019-03-15T01:39:44.992Z,65.06
2019-03-15T01:42:12.052Z,64.29
2019-03-15T01:44:39.098Z,64.35
2019-03-15T01:47:06.141Z,63.67
2019-03-15T01:49:33.630Z,63.33
2019-03-15T01:52:01.141Z,63.13
2019-03-15T01:54:28.472Z,63.04
2019-03-15T01:56:55.708Z,63.08
2019-03-15T01:59:23.047Z,62.81
2019-03-15T02:01:50.125Z,62.64
2019-03-15T02:04:17.245Z,62.27
2019-03-15T02:06:45.302Z,62.17
2019-03-15T02:09:12.829Z,62.22
2019-03-15T02:11:39.921Z,62.65
2019-03-15T02:14:09.621Z,63.08
2019-03-15T02:16:37.438Z,62.88
2019-03-15T02:19:04.594Z,63.20
2019-03-15T02:21:31.649Z,63.86
2019-03-15T02:23:59.129Z,64.09
2019-03-15T02:26:26.281Z,64.58
2019-03-15T02:28:53.849Z,64.82
2019-03-15T02:31:21.340Z,64.66
2019-03-15T02:33:48.623Z,64.55
2019-03-15T02:36:18.375Z,64.70
2019-03-15T02:38:45.426Z,64.90
2019-03-15T02:41:13.894Z,65.29
2019-03-15T02:43:42.020Z,65.24
2019-03-15T02:46:11.617Z,66.14
2019-03-15T02:48:41.082Z,66.82
2019-03-15T02:51:08.237Z,67.14
2019-03-15T02:53:35.680Z,66.94
2019-03-15T02:56:03.346Z,67.00
2019-03-15T02:58:30.359Z,66.68
2019-03-15T03:00:57.765Z,66.62
2019-03-15T03:03:26.881Z,66.57
2019-03-15T03:05:54.310Z,66.06
2019-03-15T03:08:24.307Z,65.90
2019-03-15T03:10:52.680Z,65.80
2019-03-15T03:13:19.698Z,65.76
2019-03-15T03:15:47.082Z,66.27
2019-03-15T03:18:14.165Z,66.22
2019-03-15T03:20:41.251Z,66.13
2019-03-15T03:23:08.273Z,66.36
2019-03-15T03:25:35.321Z,66.24
2019-03-15T03:28:02.347Z,66.62
2019-03-15T03:30:29.812Z,65.97
2019-03-15T03:32:57.088Z,65.64
2019-03-15T03:35:24.469Z,65.67
2019-03-15T03:37:52.001Z,65.55
2019-03-15T03:40:21.344Z,65.59
2019-03-15T03:42:48.505Z,65.50
2019-03-15T03:45:15.539Z,65.50
2019-03-15T03:47:43.450Z,65.46
2019-03-15T03:50:10.787Z,65.51
2019-03-15T03:52:41.517Z,65.44
2019-03-15T03:55:07.517Z,65.79
2019-03-15T03:57:34.780Z,65.81
2019-03-15T04:00:01.861Z,65.85
2019-03-15T04:02:29.370Z,66.03
2019-03-15T04:04:58.243Z,66.04
2019-03-15T04:07:25.572Z,66.24
2019-03-15T04:09:52.635Z,66.42
2019-03-15T04:12:19.666Z,66.73
2019-03-15T04:14:46.712Z,67.12
2019-03-15T04:17:15.853Z,67.42
2019-03-15T04:19:42.929Z,67.49
2019-03-15T04:22:10.321Z,67.84
2019-03-15T04:24:37.385Z,68.12
2019-03-15T04:27:04.402Z,68.10
2019-03-15T04:29:32.193Z,68.07
2019-03-15T04:32:01.457Z,68.09
2019-03-15T04:34:28.728Z,68.36
2019-03-15T04:36:56.475Z,68.30
2019-03-15T04:39:23.537Z,68.35
2019-03-15T04:41:50.638Z,68.21
2019-03-15T04:44:17.653Z,68.39
2019-03-15T04:46:44.783Z,68.30
2019-03-15T04:49:11.827Z,68.27
2019-03-15T04:51:38.902Z,68.43
2019-03-15T04:54:06.614Z,68.60
2019-03-15T04:56:33.664Z,68.45
2019-03-15T04:59:00.705Z,68.10
2019-03-15T05:01:27.790Z,67.95
2019-03-15T05:03:54.891Z,67.85
2019-03-15T05:06:21.976Z,67.93
2019-03-15T05:08:49.064Z,68.09
2019-03-15T05:11:16.119Z,67.93
2019-03-15T05:13:43.535Z,68.17
2019-03-15T05:16:10.591Z,68.60
2019-03-15T05:18:37.619Z,68.79
2019-03-15T05:21:04.658Z,68.54
2019-03-15T05:23:31.894Z,68.72
2019-03-15T05:25:58.920Z,68.71
2019-03-15T05:28:26.357Z,68.53
2019-03-15T05:30:54.613Z,68.53
2019-03-15T05:33:22.854Z,68.41
2019-03-15T05:35:50.353Z,68.28
2019-03-15T05:38:17.400Z,68.15
2019-03-15T05:40:44.495Z,67.97
2019-03-15T05:43:13.131Z,68.03
2019-03-15T05:45:40.178Z,68.63
2019-03-15T05:48:09.008Z,69.20
2019-03-15T05:50:36.342Z,70.15
2019-03-15T05:53:03.449Z,70.95
2019-03-15T05:55:30.643Z,71.45
2019-03-15T05:58:03.893Z,71.64
2019-03-15T06:00:31.378Z,71.97
2019-03-15T06:02:58.395Z,72.20
2019-03-15T06:05:25.789Z,72.21
2019-03-15T06:07:53.137Z,72.10
2019-03-15T06:10:20.178Z,71.50
2019-03-15T06:12:47.383Z,71.77
2019-03-15T06:15:14.469Z,72.08
2019-03-15T06:17:45.711Z,71.74
2019-03-15T06:20:12.779Z,71.39
2019-03-15T06:22:40.275Z,72.11
2019-03-15T06:25:07.579Z,71.87
2019-03-15T06:27:34.677Z,71.54
2019-03-15T06:30:01.843Z,71.71
2019-03-15T06:32:30.358Z,71.95
2019-03-15T06:34:57.415Z,72.08
2019-03-15T06:37:25.011Z,72.04
2019-03-15T06:39:52.040Z,72.27
2019-03-15T06:42:24.835Z,72.27
2019-03-15T06:45:04.869Z,71.94
2019-03-15T06:47:32.492Z,72.48
2019-03-15T06:49:59.547Z,72.68
2019-03-15T06:52:26.614Z,72.82
2019-03-15T06:54:53.720Z,72.78
2019-03-15T06:57:21.878Z,72.51
2019-03-15T06:59:48.953Z,72.37
2019-03-15T07:02:16.011Z,71.98
2019-03-15T07:04:43.304Z,72.05
2019-03-15T07:07:15.101Z,72.44
2019-03-15T07:09:41.149Z,72.53
2019-03-15T07:12:09.711Z,72.88
2019-03-15T07:14:37.205Z,72.93
2019-03-15T07:17:04.275Z,73.34
2019-03-15T07:19:31.310Z,73.56
2019-03-15T07:21:58.756Z,73.31
2019-03-15T07:24:25.892Z,73.47
2019-03-15T07:26:54.296Z,73.54
2019-03-15T07:29:21.820Z,73.62
2019-03-15T07:31:48.873Z,74.14
2019-03-15T07:34:17.435Z,74.52
2019-03-15T07:36:44.478Z,74.81
2019-03-15T07:39:12.972Z,75.04
2019-03-15T07:41:40.273Z,74.88
2019-03-15T07:44:07.774Z,74.43
2019-03-15T07:46:34.821Z,74.61
2019-03-15T07:49:01.931Z,74.63
2019-03-15T07:51:29.060Z,74.49
2019-03-15T07:53:56.184Z,74.33
2019-03-15T07:56:24.660Z,74.42
2019-03-15T07:58:52.170Z,74.24
2019-03-15T08:01:19.254Z,74.45
2019-03-15T08:03:46.253Z,74.36
2019-03-15T08:06:13.643Z,74.41
2019-03-15T08:08:40.860Z,74.54
2019-03-15T08:11:08.236Z,74.63
2019-03-15T08:13:36.293Z,74.67
2019-03-15T08:16:03.534Z,74.73
2019-03-15T08:18:30.562Z,74.57
2019-03-15T08:20:57.980Z,74.53
2019-03-15T08:23:25.067Z,74.93
2019-03-15T08:25:52.435Z,74.98
2019-03-15T08:28:19.778Z,74.81
2019-03-15T08:31:17.764Z,74.36
2019-03-15T08:33:44.897Z,74.00
2019-03-15T08:36:12.334Z,73.83
2019-03-15T08:38:47.288Z,73.66
2019-03-15T08:41:08.366Z,73.99
2019-03-15T08:43:38.211Z,74.46
2019-03-15T08:46:05.371Z,74.96
2019-03-15T08:48:34.676Z,74.89
2019-03-15T08:51:02.156Z,74.79
2019-03-15T08:53:29.363Z,75.06
2019-03-15T08:55:56.404Z,74.75
2019-03-15T08:58:23.507Z,74.75
2019-03-15T09:00:50.578Z,74.78
2019-03-15T09:03:27.785Z,74.79
2019-03-15T09:05:47.202Z,74.97
2019-03-15T09:08:15.743Z,74.92
2019-03-15T09:10:42.839Z,74.33
2019-03-15T09:13:10.943Z,73.94
2019-03-15T09:15:38.177Z,74.14
2019-03-15T09:18:06.777Z,74.40
2019-03-15T09:20:37.576Z,74.07
2019-03-15T09:23:07.202Z,73.72
2019-03-15T09:25:34.901Z,72.91
2019-03-15T09:28:02.195Z,72.96
2019-03-15T09:30:29.618Z,73.24
2019-03-15T09:33:04.825Z,74.42
2019-03-15T09:35:32.139Z,74.75
2019-03-15T09:38:01.990Z,74.67
2019-03-15T09:40:29.368Z,74.60
2019-03-15T09:42:59.718Z,74.56
2019-03-15T09:45:30.191Z,74.96
2019-03-15T09:47:59.110Z,74.63
2019-03-15T09:50:36.008Z,73.95
2019-03-15T09:52:55.247Z,73.70
2019-03-15T09:55:32.763Z,73.62
2019-03-15T09:57:55.365Z,73.71
2019-03-15T10:00:22.861Z,73.42
2019-03-15T10:02:50.185Z,73.45
2019-03-15T10:05:17.262Z,73.59
2019-03-15T10:07:44.450Z,74.17
2019-03-15T10:10:13.764Z,74.30
2019-03-15T10:12:40.619Z,74.57
2019-03-15T10:15:09.601Z,75.08
2019-03-15T10:17:36.708Z,74.67
2019-03-15T10:20:04.869Z,74.29
2019-03-15T10:22:31.928Z,74.11
2019-03-15T10:24:59.063Z,74.21
2019-03-15T10:27:26.115Z,74.50
2019-03-15T10:29:53.159Z,74.18
2019-03-15T10:32:20.374Z,74.47
2019-03-15T10:34:49.452Z,74.83
2019-03-15T10:37:16.503Z,74.64
2019-03-15T10:39:43.808Z,74.97
2019-03-15T10:42:10.972Z,74.48
2019-03-15T10:44:39.168Z,74.25
2019-03-15T10:47:06.240Z,74.20
2019-03-15T10:49:33.905Z,73.80
2019-03-15T10:52:00.965Z,73.53
2019-03-15T10:54:28.480Z,73.51
2019-03-15T10:56:55.656Z,73.30
2019-03-15T10:59:24.628Z,73.65
2019-03-15T11:01:52.000Z,73.55
2019-03-15T11:04:19.149Z,73.07
2019-03-15T11:06:46.533Z,72.93
2019-03-15T11:09:30.614Z,72.93
2019-03-15T11:12:00.376Z,73.09
2019-03-15T11:14:27.444Z,73.38
2019-03-15T11:16:54.486Z,73.86
2019-03-15T11:19:21.566Z,73.62
2019-03-15T11:21:49.097Z,73.71
2019-03-15T11:24:16.186Z,72.67
2019-03-15T11:26:43.218Z,72.45
2019-03-15T11:29:10.542Z,72.40
2019-03-15T11:31:37.648Z,72.81
2019-03-15T11:34:04.734Z,72.56
2019-03-15T11:36:33.659Z,72.25
2019-03-15T11:39:00.734Z,71.84
2019-03-15T11:41:28.339Z,71.30
2019-03-15T11:43:56.569Z,71.43
2019-03-15T11:46:23.644Z,71.76
2019-03-15T11:48:50.686Z,71.76
2019-03-15T11:51:17.794Z,71.52
2019-03-15T11:53:45.047Z,70.73
2019-03-15T11:56:12.073Z,70.81
2019-03-15T11:58:39.183Z,70.90
2019-03-15T12:01:06.960Z,71.04
2019-03-15T12:03:34.178Z,71.11
2019-03-15T12:06:01.475Z,71.12
2019-03-15T12:08:28.530Z,71.73
2019-03-15T12:10:55.609Z,71.45
2019-03-15T12:13:24.018Z,71.59
2019-03-15T12:15:51.150Z,71.29
2019-03-15T12:18:18.234Z,71.05
2019-03-15T12:20:48.999Z,70.72
2019-03-15T12:23:14.848Z,70.44
2019-03-15T12:25:41.910Z,70.58
2019-03-15T12:28:09.545Z,69.53
2019-03-15T12:30:42.867Z,69.63
2019-03-15T12:33:08.808Z,69.61
2019-03-15T12:35:37.619Z,69.02
2019-03-15T12:38:18.383Z,68.72
2019-03-15T12:40:46.451Z,67.38
2019-03-15T12:43:14.182Z,67.12
2019-03-15T12:45:41.380Z,66.85
2019-03-15T12:48:08.750Z,66.17
2019-03-15T12:50:36.808Z,66.26
2019-03-15T12:53:05.075Z,66.19
2019-03-15T12:55:32.686Z,65.98
2019-03-15T12:57:59.986Z,65.99
2019-03-15T13:00:27.137Z,65.54
2019-03-15T13:02:54.441Z,65.99
2019-03-15T13:05:21.684Z,65.96
2019-03-15T13:07:48.737Z,66.02
2019-03-15T13:10:16.202Z,64.83
2019-03-15T13:12:44.383Z,65.58
2019-03-15T13:15:11.983Z,65.53
2019-03-15T13:17:39.529Z,65.31
2019-03-15T13:20:13.605Z,65.13
2019-03-15T13:22:42.116Z,65.46
2019-03-15T13:25:12.819Z,64.77
2019-03-15T13:27:41.232Z,64.83
2019-03-15T13:30:08.734Z,65.16
2019-03-15T13:32:38.063Z,65.45
2019-03-15T13:35:05.655Z,64.49
2019-03-15T13:37:33.041Z,64.44
2019-03-15T13:40:02.226Z,64.12
2019-03-15T13:42:29.950Z,64.38
2019-03-15T13:44:57.327Z,64.41
2019-03-15T13:47:27.202Z,64.61
2019-03-15T13:49:55.696Z,64.47
2019-03-15T13:52:25.195Z,64.50
2019-03-15T13:54:52.604Z,63.91
2019-03-15T13:57:21.574Z,64.56
2019-03-15T13:59:50.206Z,64.33
2019-03-15T14:02:18.177Z,64.19
2019-03-15T14:04:45.214Z,64.46
2019-03-15T14:07:15.376Z,64.29
2019-03-15T14:09:43.835Z,64.77
2019-03-15T14:12:10.896Z,65.00
2019-03-15T14:14:48.105Z,64.90
2019-03-15T14:17:17.868Z,64.88
2019-03-15T14:19:44.955Z,64.65
2019-03-15T14:22:28.021Z,64.84
2019-03-15T14:24:55.338Z,64.79
2019-03-15T14:27:37.022Z,64.22
2019-03-15T14:29:57.743Z,64.42
2019-03-15T14:32:29.580Z,64.45
2019-03-15T14:35:01.508Z,64.96
2019-03-15T14:37:33.281Z,65.12
2019-03-15T14:40:20.055Z,65.07
2019-03-15T14:42:48.745Z,65.11
2019-03-15T14:45:15.987Z,64.94
2019-03-15T14:47:49.032Z,64.68
2019-03-15T14:50:24.071Z,64.39
2019-03-15T14:52:51.582Z,64.61
2019-03-15T14:55:22.837Z,64.56
2019-03-15T14:57:53.508Z,64.31
2019-03-15T15:00:21.944Z,64.21
2019-03-15T15:02:48.981Z,63.81
2019-03-15T15:05:16.063Z,63.64
2019-03-15T15:07:44.241Z,63.64
2019-03-15T15:10:12.475Z,63.49
2019-03-15T15:12:39.800Z,63.41
2019-03-15T15:15:14.746Z,63.00
2019-03-15T15:17:49.952Z,62.79
2019-03-15T15:20:17.321Z,63.05
2019-03-15T15:22:44.347Z,63.06
2019-03-15T15:25:11.677Z,62.97
2019-03-15T15:27:48.796Z,63.21
2019-03-15T15:30:17.284Z,63.24
2019-03-15T15:32:44.343Z,62.42
2019-03-15T15:35:11.678Z,62.43
2019-03-15T15:37:38.789Z,62.11
2019-03-15T15:40:08.315Z,62.54
2019-03-15T15:42:35.381Z,62.58
2019-03-15T15:45:04.513Z,62.97
2019-03-15T15:47:33.451Z,62.24
2019-03-15T15:50:00.643Z,62.34
2019-03-15T15:52:27.936Z,62.42
2019-03-15T15:54:55.035Z,62.56
2019-03-15T15:57:22.177Z,62.98
2019-03-15T15:59:49.399Z,63.79
2019-03-15T16:02:16.458Z,63.60
2019-03-15T16:04:43.680Z,63.43
2019-03-15T16:07:11.107Z,62.60
2019-03-15T16:09:38.276Z,62.47
2019-03-15T16:12:05.328Z,62.89
2019-03-15T16:14:34.942Z,62.48
2019-03-15T16:17:02.186Z,62.40
2019-03-15T16:19:29.423Z,62.55
2019-03-15T16:21:59.383Z,62.68
2019-03-15T16:24:26.656Z,63.11
2019-03-15T16:26:53.716Z,62.81
2019-03-15T16:29:22.371Z,63.12
2019-03-15T16:31:49.410Z,63.07
2019-03-15T16:34:16.451Z,62.54
2019-03-15T16:36:43.644Z,62.34
2019-03-15T16:39:10.978Z,62.44
2019-03-15T16:41:42.066Z,62.35
2019-03-15T16:44:14.231Z,62.34
2019-03-15T16:46:43.196Z,62.11
2019-03-15T16:49:17.179Z,62.47
2019-03-15T16:51:44.345Z,62.72
2019-03-15T16:54:15.682Z,63.07
2019-03-15T16:56:43.187Z,63.13
2019-03-15T16:59:15.544Z,62.96
2019-03-15T17:01:43.616Z,62.77
2019-03-15T17:04:11.369Z,62.71
2019-03-15T17:06:42.501Z,62.88
2019-03-15T17:09:30.233Z,62.99
2019-03-15T17:11:57.767Z,63.25
2019-03-15T17:14:25.978Z,63.27
2019-03-15T17:16:53.281Z,63.67
2019-03-15T17:19:21.060Z,63.59
2019-03-15T17:21:56.321Z,64.47
2019-03-15T17:24:26.052Z,64.67
2019-03-15T17:26:53.243Z,64.06
2019-03-15T17:29:20.399Z,63.66
2019-03-15T17:31:47.556Z,63.57
2019-03-15T17:34:14.723Z,63.35
2019-03-15T17:36:41.828Z,63.39
2019-03-15T17:39:08.894Z,63.21
2019-03-15T17:41:36.089Z,63.11
2019-03-15T17:47:41.762Z,63.26
2019-03-15T17:50:11.192Z,63.34
2019-03-15T17:52:38.322Z,63.52
2019-03-15T17:55:05.868Z,63.77
2019-03-15T17:57:34.753Z,64.01
2019-03-15T18:00:13.639Z,64.36
2019-03-15T18:02:41.279Z,64.61
2019-03-15T18:05:08.769Z,65.08
2019-03-15T18:07:35.868Z,65.38
2019-03-15T18:10:03.829Z,66.03
2019-03-15T18:12:43.587Z,66.27
2019-03-15T18:15:10.730Z,66.91
2019-03-15T18:17:48.665Z,67.03
2019-03-15T18:20:15.916Z,67.67
2019-03-15T18:22:45.000Z,68.31
2019-03-15T18:25:12.061Z,68.93
2019-03-15T18:27:39.421Z,69.05
2019-03-15T18:30:07.482Z,69.09
2019-03-15T18:32:34.564Z,68.83
2019-03-15T18:35:01.798Z,69.14
2019-03-15T18:37:29.174Z,68.88
2019-03-15T18:39:56.644Z,69.14
2019-03-15T18:42:24.292Z,69.49
2019-03-15T18:44:52.288Z,69.54
2019-03-15T18:47:21.420Z,69.64
2019-03-15T18:49:49.205Z,70.02
2019-03-15T18:52:19.420Z,70.11
2019-03-15T18:54:47.758Z,70.31
2019-03-15T18:57:15.306Z,70.66
2019-03-15T18:59:42.426Z,70.70
2019-03-15T19:02:09.570Z,70.86
2019-03-15T19:04:36.724Z,70.84
2019-03-15T19:07:03.777Z,70.81
2019-03-15T19:09:30.995Z,70.97
2019-03-15T19:11:58.095Z,70.69
2019-03-15T19:14:28.267Z,70.52
2019-03-15T19:16:59.669Z,70.87
2019-03-15T19:19:27.957Z,70.51
2019-03-15T19:21:57.044Z,70.26
2019-03-15T19:24:24.116Z,70.35
2019-03-15T19:26:51.355Z,70.11
2019-03-15T19:29:18.656Z,70.10
2019-03-15T19:31:45.741Z,70.09
2019-03-15T19:34:12.812Z,69.85
2019-03-15T19:36:40.241Z,69.94
2019-03-15T19:39:07.351Z,70.01
2019-03-15T19:41:34.587Z,69.81
2019-03-15T19:44:03.502Z,70.02
2019-03-15T19:46:30.711Z,70.03
2019-03-15T19:48:57.897Z,70.25
2019-03-15T19:51:25.107Z,70.04
2019-03-15T19:53:54.352Z,70.20
2019-03-15T19:56:23.235Z,70.25
2019-03-15T19:58:50.288Z,70.53
2019-03-15T20:01:17.522Z,70.84
2019-03-15T20:03:45.069Z,70.82
2019-03-15T20:06:12.803Z,70.90
2019-03-15T20:08:41.463Z,70.78
2019-03-15T20:11:10.845Z,70.81
2019-03-15T20:13:38.010Z,70.69
2019-03-15T20:16:05.174Z,70.63
2019-03-15T20:18:32.220Z,70.91
2019-03-15T20:20:59.409Z,70.54
2019-03-15T20:23:26.938Z,70.68
2019-03-15T20:25:54.206Z,70.54
2019-03-15T20:28:21.676Z,70.32
2019-03-15T20:30:52.187Z,70.15
2019-03-15T20:33:19.889Z,69.86
2019-03-15T20:35:47.078Z,69.98
2019-03-15T20:38:14.709Z,69.75
2019-03-15T20:40:41.909Z,69.62
2019-03-15T20:43:08.982Z,69.54
2019-03-15T20:45:36.276Z,69.76
2019-03-15T20:48:03.399Z,69.68
2019-03-15T20:50:30.613Z,69.67
2019-03-15T20:53:07.841Z,69.63
2019-03-15T20:55:28.916Z,69.54
2019-03-15T20:57:56.911Z,69.56
2019-03-15T21:00:34.848Z,69.59
2019-03-15T21:02:53.699Z,69.60
2019-03-15T21:05:20.773Z,69.49
2019-03-15T21:07:48.397Z,69.58
2019-03-15T21:10:15.833Z,69.82
2019-03-15T21:12:42.927Z,69.76
2019-03-15T21:15:10.418Z,69.87
2019-03-15T21:17:38.421Z,69.92
2019-03-15T21:20:08.486Z,70.02
2019-03-15T21:22:38.506Z,70.02
2019-03-15T21:25:06.476Z,70.10
2019-03-15T21:27:33.647Z,70.25
2019-03-15T21:30:00.994Z,70.19
2019-03-15T21:32:34.442Z,70.25
2019-03-15T21:35:01.854Z,70.06
2019-03-15T21:37:29.846Z,69.99
2019-03-15T21:39:57.777Z,69.86
2019-03-15T21:42:25.242Z,69.63
2019-03-15T21:44:52.296Z,69.54
2019-03-15T21:47:19.866Z,69.56
2019-03-15T21:49:46.982Z,69.83
2019-03-15T21:52:14.128Z,69.91
2019-03-15T21:54:41.531Z,69.83
2019-03-15T21:57:08.642Z,69.92
2019-03-15T21:59:39.116Z,70.04
2019-03-15T22:02:06.886Z,70.10
2019-03-15T22:04:34.021Z,70.19
2019-03-15T22:07:01.345Z,70.27
2019-03-15T22:09:28.570Z,70.22
2019-03-15T22:11:55.676Z,70.05
2019-03-15T22:14:22.771Z,69.73
2019-03-15T22:16:50.403Z,69.48
2019-03-15T22:19:18.589Z,69.29
2019-03-15T22:21:45.671Z,69.15
2019-03-15T22:24:13.155Z,69.34
2019-03-15T22:26:40.331Z,69.20
2019-03-15T22:29:07.757Z,68.85
2019-03-15T22:31:35.973Z,68.60
2019-03-15T22:34:04.985Z,68.44
2019-03-15T22:36:32.206Z,68.30
2019-03-15T22:38:59.297Z,68.03
2019-03-15T22:41:26.358Z,67.83
2019-03-15T22:44:05.456Z,67.99
2019-03-15T22:46:38.347Z,67.98
2019-03-15T22:49:14.703Z,67.87
2019-03-15T22:51:41.723Z,67.67
2019-03-15T22:54:08.695Z,67.72
2019-03-15T22:56:38.616Z,67.45
2019-03-15T22:59:07.505Z,67.63
2019-03-15T23:01:34.570Z,67.66
2019-03-15T23:04:01.663Z,68.26
2019-03-15T23:06:28.876Z,68.88
2019-03-15T23:08:56.430Z,69.44
2019-03-15T23:11:23.577Z,69.87
2019-03-15T23:13:52.547Z,70.50
2019-03-15T23:16:20.788Z,70.79
2019-03-15T23:18:48.151Z,70.54
2019-03-15T23:21:15.337Z,70.62
2019-03-15T23:23:42.372Z,70.59
2019-03-15T23:26:10.055Z,70.53
2019-03-15T23:28:37.145Z,70.27
2019-03-15T23:31:04.215Z,70.12
2019-03-15T23:33:33.090Z,69.83
2019-03-15T23:36:00.196Z,69.69
2019-03-15T23:38:27.249Z,69.43
2019-03-15T23:40:58.686Z,69.25
2019-03-15T23:43:25.751Z,69.10
2019-03-15T23:45:54.634Z,68.82
2019-03-15T23:48:21.739Z,69.05
2019-03-15T23:50:48.777Z,68.80
2019-03-15T23:53:15.877Z,68.67
2019-03-15T23:55:42.975Z,68.40
2019-03-15T23:58:10.061Z,68.05
